Portada
METAR-TAF:

METAR-TAF

Aeroports :

Koksijde, Bèlgica

latitud: 51-05N, longitud: 002-39E, altitud: 4 m

Observació

L'informe es va fer fa 29 minuts, a les 23:25 UTC
Vent 2 kt amb direcció variable
Temperatura 9°C
Humitat 100%
Pressió 1011 hPa
Visibilitat: 6000 m

METAR: EBFN 222325Z AUTO VRB02KT 6000 SCT031/// 09/09 Q1011 WHT

Hora: 01:54 (23:54 UTC)

Pronòstic

L'informe es va fer fa 7 hores i 39 minuts, a les 16:15 UTC
Pronòstic vàlid del 22 a les 19 UTC al 23 a les 07 UTC
Vent 5 kt del Sud/Sud-Oest
Visibilitat 10 km o més
Escasses núvols a una alçada de 23000 ft
Evolucionant progressivament
l' 23 a les 00 UTC al 23 a les 02 UTC
Vent 2 kt del Sud/Sud-Est
Visibilitat: 4000 m
boirina
Temporalment
l' 23 a les 03 UTC al 23 a les 07 UTC
Visibilitat: 0500 m
Cel ennuvolat a una alçada de 200 ft
boira

TAF: EBFN 221615Z 2219/2307 21005KT 9999 FEW230 BECMG 2300/2302 15002KT 4000 BR TEMPO 2303/2307 0500 FG BKN002

Observacions i pronòstics meteorològics de més de 4000 aeroports (METAR i TAF).

Les estacions disponibles són els punts grocs i vermells al mapa.

Posi el ratolí al punt desitjat per veure el nom de l'estació.

Feu clic per veure les observacions i els pronòstics meteorològics.

Per canviar el mapa: feu clic els botons verds amb una creu de color negre per apropar; al botó verd amb un guió per allunyar la imatge; o en les fletxes verdes per a mapes adjacents.


METAR-TAF: